Time;durP1;ratioP1;P1;durP2;ratioP2;P2;SDS_P1;SDS_P2;PMS_P1;PMS_P2;Temp;Humidity;BMP_temperature;BMP_pressure;BME280_temperature;BME280_humidity;BME280_pressure;Samples;Min_cycle;Max_cycle;Signal;HPM_P1;HPM_P2
2023/04/23 00:02:03;;;;;;;1.50;1.03;;;11.90;98.20;;;;;;4994290;28;20859;-77
2023/04/23 00:04:33;;;;;;;1.50;1.10;;;11.90;98.20;;;;;;5007310;28;20492;-77
2023/04/23 00:07:02;;;;;;;1.53;1.27;;;11.90;98.20;;;;;;4979958;28;21036;-78
2023/04/23 00:09:31;;;;;;;1.50;1.10;;;11.80;98.20;;;;;;4995715;28;20483;-78
2023/04/23 00:11:58;;;;;;;1.50;1.10;;;11.80;98.20;;;;;;4990746;28;20565;-77
2023/04/23 00:14:25;;;;;;;1.50;1.10;;;11.80;98.20;;;;;;5001348;28;20929;-77
2023/04/23 00:16:53;;;;;;;1.50;1.07;;;11.80;98.20;;;;;;4991889;28;20480;-77
2023/04/23 00:19:20;;;;;;;1.50;1.10;;;11.80;98.20;;;;;;5001719;28;20457;-78
2023/04/23 00:21:46;;;;;;;1.50;1.20;;;11.80;98.20;;;;;;4991580;28;20567;-77
2023/04/23 00:24:15;;;;;;;1.50;1.10;;;11.80;98.20;;;;;;5001832;28;20496;-77
2023/04/23 00:26:41;;;;;;;1.50;1.10;;;11.80;98.20;;;;;;4987926;28;20496;-77
2023/04/23 00:29:08;;;;;;;1.50;1.10;;;11.80;98.20;;;;;;4995680;28;20496;-77
2023/04/23 00:31:35;;;;;;;1.50;1.07;;;11.80;98.20;;;;;;4993686;28;20496;-78
2023/04/23 00:34:02;;;;;;;1.50;1.10;;;11.80;98.20;;;;;;4997430;28;20491;-77
2023/04/23 00:36:29;;;;;;;1.50;1.13;;;11.70;98.20;;;;;;4989598;28;20484;-77
2023/04/23 00:38:56;;;;;;;1.50;1.07;;;11.70;98.20;;;;;;4996608;28;21033;-77
2023/04/23 00:41:26;;;;;;;1.50;1.10;;;11.60;98.20;;;;;;4992096;28;20490;-77
2023/04/23 00:43:53;;;;;;;1.50;1.00;;;11.60;98.20;;;;;;5002483;28;20901;-77
2023/04/23 00:46:20;;;;;;;1.50;1.10;;;11.60;98.20;;;;;;4987438;28;20481;-78
2023/04/23 00:48:47;;;;;;;1.50;1.10;;;11.70;98.20;;;;;;5009360;28;20484;-77
2023/04/23 00:51:16;;;;;;;1.50;1.10;;;11.70;98.20;;;;;;4992419;28;20486;-77
2023/04/23 00:53:43;;;;;;;1.50;1.10;;;11.60;98.20;;;;;;4998143;28;20462;-77
2023/04/23 00:56:11;;;;;;;1.50;1.10;;;11.60;98.20;;;;;;4992792;28;21047;-77
2023/04/23 00:58:40;;;;;;;1.50;1.20;;;11.60;98.20;;;;;;5000699;28;20464;-77
2023/04/23 01:01:07;;;;;;;1.50;1.20;;;11.60;98.20;;;;;;4993920;28;20508;-77
2023/04/23 01:03:36;;;;;;;1.50;1.20;;;11.50;98.20;;;;;;5004252;28;20479;-77
2023/04/23 01:06:03;;;;;;;1.50;1.17;;;11.50;98.20;;;;;;4991996;28;20468;-77
2023/04/23 01:08:31;;;;;;;1.50;1.20;;;11.50;98.20;;;;;;4999910;28;20461;-78
2023/04/23 01:10:59;;;;;;;1.50;1.10;;;11.50;98.20;;;;;;4992688;28;21009;-77
2023/04/23 01:13:28;;;;;;;1.50;1.00;;;11.50;98.20;;;;;;5014973;28;20467;-78
2023/04/23 01:15:56;;;;;;;1.50;1.17;;;11.40;98.20;;;;;;4989050;28;20556;-78
2023/04/23 01:18:24;;;;;;;1.50;1.00;;;11.40;98.20;;;;;;4997475;28;20847;-77
2023/04/23 01:20:51;;;;;;;1.50;1.10;;;11.40;98.20;;;;;;4991010;28;20574;-77
2023/04/23 01:23:19;;;;;;;1.50;1.10;;;11.40;98.20;;;;;;5003902;28;20543;-78
2023/04/23 01:25:46;;;;;;;1.60;1.10;;;11.40;98.20;;;;;;5003225;28;21004;-77
2023/04/23 01:28:13;;;;;;;1.50;1.13;;;11.30;98.20;;;;;;4972152;28;20478;-77
2023/04/23 01:30:43;;;;;;;1.50;1.10;;;11.30;98.20;;;;;;5003278;28;20499;-77
2023/04/23 01:33:11;;;;;;;1.50;1.10;;;11.30;98.20;;;;;;4994008;28;20473;-77
2023/04/23 01:35:38;;;;;;;1.50;1.13;;;11.30;98.20;;;;;;4997309;28;20861;-78
2023/04/23 01:38:08;;;;;;;1.50;1.10;;;11.30;98.20;;;;;;4991118;28;20579;-79
2023/04/23 01:40:37;;;;;;;1.50;1.10;;;11.30;98.20;;;;;;4996334;28;20476;-77
2023/04/23 01:43:05;;;;;;;1.50;1.10;;;11.30;98.20;;;;;;4987238;28;20481;-77
2023/04/23 01:45:31;;;;;;;1.50;1.10;;;11.20;98.20;;;;;;4998009;28;20492;-77
2023/04/23 01:47:59;;;;;;;1.50;1.20;;;11.20;98.20;;;;;;4988813;28;20476;-78
2023/04/23 01:50:28;;;;;;;1.50;1.00;;;11.20;98.20;;;;;;5002498;28;21015;-79
2023/04/23 01:52:55;;;;;;;1.50;1.10;;;11.20;98.20;;;;;;5005648;28;20519;-78
2023/04/23 01:55:22;;;;;;;1.50;1.20;;;11.10;98.20;;;;;;4989918;28;20471;-78
2023/04/23 01:57:51;;;;;;;1.50;1.10;;;11.20;98.20;;;;;;4985872;28;21018;-78
2023/04/23 02:00:19;;;;;;;1.50;1.20;;;11.20;98.20;;;;;;5003557;28;20499;-78
2023/04/23 02:02:46;;;;;;;1.50;1.10;;;11.20;98.20;;;;;;4988736;28;20484;-79
2023/04/23 02:05:17;;;;;;;1.50;1.20;;;11.10;98.20;;;;;;4997573;28;20488;-78
2023/04/23 02:07:44;;;;;;;1.50;1.03;;;11.10;98.20;;;;;;4990404;28;20481;-78
2023/04/23 02:10:12;;;;;;;1.50;1.20;;;11.10;98.20;;;;;;5004476;28;20957;-78
2023/04/23 02:12:39;;;;;;;1.50;1.00;;;11.00;98.20;;;;;;4993261;28;20519;-80
2023/04/23 02:15:09;;;;;;;1.50;1.03;;;11.00;98.20;;;;;;4999941;28;20463;-78
2023/04/23 02:17:36;;;;;;;1.50;1.20;;;10.90;98.20;;;;;;4988560;28;20488;-78
2023/04/23 02:20:03;;;;;;;1.50;1.20;;;10.90;98.20;;;;;;5003533;28;21002;-78
2023/04/23 02:22:30;;;;;;;1.50;1.10;;;10.80;98.20;;;;;;4990353;28;20485;-79
2023/04/23 02:24:57;;;;;;;1.50;1.10;;;10.80;98.20;;;;;;4999994;28;20488;-78
2023/04/23 02:27:24;;;;;;;1.50;1.10;;;10.70;98.20;;;;;;4991154;28;20725;-78
2023/04/23 02:29:52;;;;;;;1.50;1.20;;;10.70;98.20;;;;;;5004094;28;20486;-78
2023/04/23 02:32:20;;;;;;;1.50;1.10;;;10.70;98.20;;;;;;4991700;28;20494;-78
2023/04/23 02:34:47;;;;;;;1.50;1.10;;;10.60;98.20;;;;;;4998185;28;20456;-78
2023/04/23 02:37:13;;;;;;;1.50;1.10;;;10.60;98.20;;;;;;4990937;28;21035;-78
2023/04/23 02:39:40;;;;;;;1.50;1.20;;;10.60;98.20;;;;;;5003084;28;20582;-78
2023/04/23 02:42:07;;;;;;;1.50;1.10;;;10.60;98.20;;;;;;4992819;28;20613;-78
2023/04/23 02:44:33;;;;;;;1.50;1.10;;;10.60;98.20;;;;;;4998083;28;20494;-77
2023/04/23 02:47:00;;;;;;;1.50;1.07;;;10.60;98.20;;;;;;4988169;28;20485;-77
2023/04/23 02:49:28;;;;;;;1.50;1.10;;;10.60;98.20;;;;;;5002816;28;20865;-78
2023/04/23 02:51:55;;;;;;;1.50;1.10;;;10.60;98.20;;;;;;4992309;28;20562;-78
2023/04/23 02:54:22;;;;;;;1.50;1.20;;;10.60;98.20;;;;;;4997556;28;20457;-77
2023/04/23 02:56:49;;;;;;;1.50;1.10;;;10.60;98.20;;;;;;4991321;28;20602;-78
2023/04/23 02:59:16;;;;;;;1.50;1.10;;;10.70;98.20;;;;;;4998294;28;20468;-77
2023/04/23 03:01:43;;;;;;;1.57;1.30;;;10.60;98.20;;;;;;4991546;28;21000;-78
2023/04/23 03:04:11;;;;;;;1.50;1.20;;;10.70;98.20;;;;;;4999169;28;20470;-78
2023/04/23 03:06:39;;;;;;;1.50;1.10;;;10.70;98.20;;;;;;4991088;28;20480;-77
2023/04/23 03:09:06;;;;;;;1.60;1.40;;;10.70;98.20;;;;;;4997665;28;20470;-77
2023/04/23 03:11:34;;;;;;;1.50;1.10;;;10.70;98.20;;;;;;4992232;28;20943;-77
2023/04/23 03:14:00;;;;;;;1.50;1.30;;;10.70;98.20;;;;;;5002405;28;20466;-78
2023/04/23 03:16:28;;;;;;;2.33;2.13;;;10.70;98.20;;;;;;5004425;28;20480;-78
2023/04/23 03:18:55;;;;;;;1.50;1.23;;;10.70;98.20;;;;;;5002609;28;20470;-78
2023/04/23 03:21:22;;;;;;;1.50;1.10;;;10.70;98.20;;;;;;4995077;28;20783;-79
2023/04/23 03:23:50;;;;;;;1.50;1.20;;;10.70;98.20;;;;;;5006472;28;20464;-78
2023/04/23 03:26:17;;;;;;;1.50;1.10;;;10.70;98.20;;;;;;4994012;28;20875;-77
2023/04/23 03:28:43;;;;;;;1.50;1.10;;;10.70;98.20;;;;;;5001226;28;20856;-77
2023/04/23 03:31:10;;;;;;;1.50;1.10;;;10.70;98.20;;;;;;4994956;28;20483;-78
2023/04/23 03:33:37;;;;;;;2.07;1.47;;;10.70;98.20;;;;;;5006356;28;20467;-77
2023/04/23 03:36:04;;;;;;;1.50;1.07;;;10.70;98.20;;;;;;4993729;28;20457;-78
2023/04/23 03:38:31;;;;;;;1.50;1.20;;;10.70;98.20;;;;;;5005021;28;20833;-77
2023/04/23 03:40:59;;;;;;;1.50;1.30;;;10.70;98.20;;;;;;4997111;28;20502;-79
2023/04/23 03:43:26;;;;;;;1.60;1.37;;;10.70;98.20;;;;;;5005935;28;20956;-78
2023/04/23 03:45:53;;;;;;;1.57;1.30;;;10.70;98.20;;;;;;4989906;28;20857;-79
2023/04/23 03:48:20;;;;;;;1.50;1.10;;;10.70;98.20;;;;;;5005841;28;20477;-79
2023/04/23 03:50:47;;;;;;;1.50;1.20;;;10.70;98.20;;;;;;5004534;28;20484;-77
2023/04/23 03:53:14;;;;;;;1.50;1.10;;;10.70;98.20;;;;;;5002171;28;20947;-77
2023/04/23 03:55:41;;;;;;;1.50;1.10;;;10.70;98.20;;;;;;5013704;28;20468;-78
2023/04/23 03:58:09;;;;;;;1.50;1.17;;;10.70;98.20;;;;;;4990414;28;20480;-77
2023/04/23 04:00:36;;;;;;;1.50;1.10;;;10.70;98.20;;;;;;5003948;28;20580;-78
2023/04/23 04:03:03;;;;;;;1.50;1.10;;;10.70;98.20;;;;;;4990358;28;21180;-78
2023/04/23 04:05:29;;;;;;;1.50;1.10;;;10.70;98.20;;;;;;4997680;28;20489;-77
2023/04/23 04:07:56;;;;;;;1.50;1.10;;;10.60;98.20;;;;;;4992555;28;20487;-79
2023/04/23 04:10:23;;;;;;;1.50;1.13;;;10.70;98.20;;;;;;4998022;28;20560;-79
2023/04/23 04:15:20;;;;;;;1.50;1.10;;;10.70;98.20;;;;;;4984469;28;20473;-75
2023/04/23 04:17:47;;;;;;;1.50;1.20;;;10.70;98.20;;;;;;4982905;28;20488;-75
2023/04/23 04:20:14;;;;;;;1.50;1.20;;;10.70;98.20;;;;;;4996569;28;20890;-75
2023/04/23 04:22:41;;;;;;;1.60;1.30;;;10.70;98.20;;;;;;5022673;28;20506;-74
2023/04/23 04:25:08;;;;;;;1.53;1.20;;;10.80;98.20;;;;;;5078645;28;20489;-75
2023/04/23 04:27:36;;;;;;;1.50;1.10;;;10.80;98.20;;;;;;5088211;28;20483;-74
2023/04/23 04:30:04;;;;;;;1.50;1.20;;;10.80;98.20;;;;;;5074590;28;20462;-75
2023/04/23 04:32:33;;;;;;;1.50;1.10;;;10.80;98.20;;;;;;5073452;28;20512;-75
2023/04/23 04:34:59;;;;;;;1.50;1.10;;;10.90;98.20;;;;;;5071867;28;20468;-74
2023/04/23 04:37:26;;;;;;;1.50;1.10;;;10.90;98.20;;;;;;5080539;28;20502;-75
2023/04/23 04:39:54;;;;;;;1.50;1.20;;;10.90;98.20;;;;;;5075325;28;20462;-74
2023/04/23 04:42:20;;;;;;;1.50;1.10;;;11.00;98.20;;;;;;5080863;28;20932;-75
2023/04/23 04:44:47;;;;;;;1.50;1.10;;;11.00;98.20;;;;;;5080340;28;20461;-75
2023/04/23 04:47:15;;;;;;;1.60;1.30;;;11.00;98.20;;;;;;5080401;28;20476;-75
2023/04/23 04:49:43;;;;;;;1.50;1.10;;;11.10;98.20;;;;;;5084198;28;20873;-75
2023/04/23 04:52:10;;;;;;;1.50;1.20;;;11.10;98.20;;;;;;5081558;28;20519;-75
2023/04/23 04:54:37;;;;;;;1.50;1.10;;;11.10;98.20;;;;;;5086503;28;20456;-75
2023/04/23 04:57:04;;;;;;;1.50;1.10;;;11.20;98.20;;;;;;5067638;28;20988;-74
2023/04/23 04:59:30;;;;;;;1.50;1.10;;;11.30;98.20;;;;;;5080142;28;20547;-75
2023/04/23 05:01:58;;;;;;;1.50;1.10;;;11.40;98.20;;;;;;5077884;28;20483;-75
2023/04/23 05:04:25;;;;;;;1.50;1.20;;;11.40;98.20;;;;;;5079122;28;20468;-75
2023/04/23 05:06:54;;;;;;;1.50;1.10;;;11.50;98.20;;;;;;5072905;28;20468;-76
2023/04/23 05:09:20;;;;;;;1.50;1.07;;;11.50;98.20;;;;;;5082569;28;20456;-74
2023/04/23 05:11:47;;;;;;;1.50;1.10;;;11.60;98.20;;;;;;5077342;28;20479;-76
2023/04/23 05:14:14;;;;;;;1.50;1.20;;;11.60;98.20;;;;;;5089790;28;20487;-75
2023/04/23 05:16:41;;;;;;;1.57;1.17;;;11.60;98.20;;;;;;5069462;28;20481;-75
2023/04/23 05:19:08;;;;;;;1.57;1.20;;;11.70;98.20;;;;;;5080277;28;20464;-75
2023/04/23 05:21:35;;;;;;;1.50;1.07;;;11.70;98.20;;;;;;5077250;28;20571;-74
2023/04/23 05:24:03;;;;;;;1.60;1.10;;;11.70;98.20;;;;;;5091208;28;21118;-75
2023/04/23 05:26:30;;;;;;;1.50;1.17;;;11.80;98.20;;;;;;5071483;28;20558;-75
2023/04/23 05:28:57;;;;;;;1.50;1.07;;;11.80;98.20;;;;;;5092985;28;20460;-75
2023/04/23 05:31:23;;;;;;;1.50;1.20;;;11.80;98.20;;;;;;5071207;28;20483;-75
2023/04/23 05:33:50;;;;;;;1.50;1.10;;;11.90;98.20;;;;;;5090004;28;20473;-75
2023/04/23 05:36:17;;;;;;;1.53;1.20;;;11.90;98.20;;;;;;5072598;28;20487;-74
2023/04/23 05:38:44;;;;;;;1.53;1.10;;;11.90;98.20;;;;;;5095535;28;20464;-75
2023/04/23 05:41:13;;;;;;;1.53;1.13;;;12.00;98.20;;;;;;5071897;28;20487;-75
2023/04/23 05:43:39;;;;;;;1.53;1.20;;;12.00;98.20;;;;;;5096872;28;20480;-75
2023/04/23 05:46:06;;;;;;;1.50;1.10;;;12.10;98.20;;;;;;5072847;28;21052;-75
2023/04/23 05:48:33;;;;;;;1.50;1.10;;;12.10;98.20;;;;;;5095114;28;21027;-74
2023/04/23 05:51:00;;;;;;;1.50;1.10;;;12.20;98.20;;;;;;5067608;28;20457;-75
2023/04/23 05:53:28;;;;;;;1.60;1.20;;;12.20;98.20;;;;;;5096751;28;20992;-75
2023/04/23 05:55:54;;;;;;;1.50;1.10;;;12.20;98.20;;;;;;5066758;28;20454;-74
2023/04/23 05:58:23;;;;;;;1.50;1.07;;;12.30;98.20;;;;;;5095732;28;20457;-75
2023/04/23 06:00:51;;;;;;;1.50;1.10;;;12.30;98.20;;;;;;5071366;28;20460;-75
2023/04/23 06:03:18;;;;;;;1.70;1.50;;;12.40;98.20;;;;;;5095881;28;20559;-74
2023/04/23 06:05:45;;;;;;;1.60;1.30;;;12.40;98.20;;;;;;5076809;28;20758;-75
2023/04/23 06:08:11;;;;;;;1.53;1.10;;;12.40;98.20;;;;;;5069500;28;20487;-75
2023/04/23 06:10:38;;;;;;;1.50;1.10;;;12.50;98.20;;;;;;5075964;28;20850;-75
2023/04/23 06:13:05;;;;;;;1.50;1.00;;;12.50;98.20;;;;;;5072521;28;20488;-75
2023/04/23 06:15:33;;;;;;;1.50;1.00;;;12.50;98.20;;;;;;5081845;28;20468;-76
2023/04/23 06:18:00;;;;;;;1.53;1.10;;;12.60;98.20;;;;;;5088863;28;20480;-76
2023/04/23 06:20:27;;;;;;;1.50;1.10;;;12.60;98.20;;;;;;5080976;28;20953;-76
2023/04/23 06:22:53;;;;;;;1.50;1.10;;;12.70;98.20;;;;;;5086222;28;20490;-76
2023/04/23 06:25:20;;;;;;;1.50;1.00;;;12.70;98.20;;;;;;5079784;28;20461;-75
2023/04/23 06:27:47;;;;;;;1.50;1.10;;;12.80;98.20;;;;;;5087024;28;20483;-76
2023/04/23 06:30:14;;;;;;;1.50;1.10;;;12.90;98.20;;;;;;5079097;28;20464;-76
2023/04/23 06:32:42;;;;;;;1.53;1.10;;;12.90;98.20;;;;;;5084944;28;20484;-76
2023/04/23 06:35:10;;;;;;;1.53;1.10;;;12.90;98.20;;;;;;5082111;28;20456;-75
2023/04/23 06:37:36;;;;;;;1.50;1.00;;;13.00;98.20;;;;;;5071891;28;20484;-77
2023/04/23 06:40:03;;;;;;;1.50;1.10;;;13.10;98.20;;;;;;5079855;28;20461;-76
2023/04/23 06:42:30;;;;;;;1.50;1.10;;;13.20;98.20;;;;;;5085670;28;20489;-75
2023/04/23 06:44:58;;;;;;;1.53;1.10;;;13.30;98.20;;;;;;5080779;28;20484;-79
2023/04/23 06:47:25;;;;;;;1.50;1.10;;;13.40;98.20;;;;;;5087362;28;20490;-78
2023/04/23 06:49:53;;;;;;;1.50;1.00;;;13.40;98.20;;;;;;5089653;28;20479;-78
2023/04/23 06:52:20;;;;;;;1.50;1.00;;;13.50;98.20;;;;;;5089189;28;20489;-76
2023/04/23 06:54:47;;;;;;;1.50;1.00;;;13.50;98.20;;;;;;5090626;28;20545;-78
2023/04/23 06:57:13;;;;;;;1.50;1.00;;;13.50;98.20;;;;;;5087633;28;20522;-80
2023/04/23 06:59:40;;;;;;;1.50;1.10;;;13.60;98.20;;;;;;5090072;28;20542;-77
2023/04/23 07:02:07;;;;;;;1.50;1.10;;;13.60;98.20;;;;;;5084833;28;20471;-76
2023/04/23 07:04:34;;;;;;;1.53;1.10;;;13.70;98.20;;;;;;5086562;28;20472;-77
2023/04/23 07:07:02;;;;;;;1.50;1.10;;;13.80;98.20;;;;;;5083546;28;20499;-79
2023/04/23 07:09:29;;;;;;;1.50;1.00;;;14.00;98.20;;;;;;5090495;28;20997;-79
2023/04/23 07:11:56;;;;;;;1.50;0.93;;;14.10;98.20;;;;;;5083268;28;20490;-76
2023/04/23 07:14:23;;;;;;;1.50;1.00;;;14.20;98.20;;;;;;5090615;28;20475;-79
2023/04/23 07:16:50;;;;;;;1.50;1.00;;;14.60;98.20;;;;;;5073041;28;20484;-78
2023/04/23 07:19:17;;;;;;;1.57;1.10;;;14.90;98.20;;;;;;5085723;28;20464;-79
2023/04/23 07:21:44;;;;;;;1.50;1.03;;;15.00;98.20;;;;;;5080048;28;20494;-75
2023/04/23 07:24:12;;;;;;;1.53;0.97;;;15.30;98.20;;;;;;5096377;28;20545;-77
2023/04/23 07:26:39;;;;;;;1.60;1.30;;;15.40;98.20;;;;;;5081770;28;20479;-80
2023/04/23 07:29:06;;;;;;;1.50;0.90;;;15.50;98.20;;;;;;5096780;28;20454;-78
2023/04/23 07:31:33;;;;;;;1.53;1.00;;;15.60;98.20;;;;;;5079171;28;20498;-77
2023/04/23 07:34:00;;;;;;;1.50;1.00;;;15.60;98.20;;;;;;5094533;28;20473;-76
2023/04/23 07:36:26;;;;;;;1.60;1.23;;;15.60;98.20;;;;;;5076545;28;20510;-78
2023/04/23 07:38:53;;;;;;;1.60;1.30;;;15.70;98.20;;;;;;5095062;28;20957;-77
2023/04/23 07:41:21;;;;;;;1.50;1.00;;;15.80;98.20;;;;;;5070768;28;20498;-76
2023/04/23 07:43:48;;;;;;;1.50;1.00;;;16.00;98.20;;;;;;5096648;28;20481;-76
2023/04/23 07:46:15;;;;;;;1.50;0.90;;;16.00;98.20;;;;;;5076733;28;20484;-76
2023/04/23 07:48:41;;;;;;;1.50;1.10;;;16.20;98.20;;;;;;5097084;28;20468;-76
2023/04/23 07:51:08;;;;;;;1.60;1.10;;;16.40;98.20;;;;;;5073881;28;21287;-76
2023/04/23 07:53:35;;;;;;;1.50;0.90;;;16.60;98.20;;;;;;5098096;28;21028;-77
2023/04/23 07:56:02;;;;;;;1.50;0.93;;;16.90;98.20;;;;;;5071002;28;20449;-77
2023/04/23 07:58:31;;;;;;;4.33;1.73;;;17.30;98.20;;;;;;5081980;28;20553;-75
2023/04/23 08:00:58;;;;;;;1.50;1.00;;;17.40;98.20;;;;;;5072138;28;20940;-76
2023/04/23 08:03:25;;;;;;;1.50;0.90;;;17.70;98.20;;;;;;5093769;28;20889;-77
2023/04/23 08:05:52;;;;;;;2.90;2.70;;;18.00;98.20;;;;;;5068839;28;20527;-76
2023/04/23 08:08:18;;;;;;;1.50;0.90;;;18.10;98.20;;;;;;5098529;28;20466;-76
2023/04/23 08:10:46;;;;;;;1.50;0.97;;;18.40;98.20;;;;;;5078632;28;20600;-76
2023/04/23 08:13:13;;;;;;;1.50;1.00;;;18.60;98.20;;;;;;5066404;28;20470;-77
2023/04/23 08:15:41;;;;;;;1.50;0.90;;;19.00;98.20;;;;;;5086081;28;20461;-75
2023/04/23 08:18:07;;;;;;;1.50;1.00;;;19.20;98.20;;;;;;5091993;28;20495;-75
2023/04/23 08:20:34;;;;;;;1.53;0.90;;;19.50;98.20;;;;;;5083613;28;20941;-75
2023/04/23 08:23:02;;;;;;;1.60;1.00;;;19.60;96.40;;;;;;5089111;28;20858;-75
2023/04/23 08:25:29;;;;;;;1.50;0.90;;;19.60;96.50;;;;;;5085520;28;20500;-77
2023/04/23 08:27:56;;;;;;;2.00;1.67;;;19.60;97.20;;;;;;5089690;28;20479;-75
2023/04/23 08:30:22;;;;;;;1.50;0.90;;;19.50;96.60;;;;;;5082653;28;20467;-77
2023/04/23 08:32:53;;;;;;;1.50;0.90;;;19.30;95.90;;;;;;5088559;28;20534;-76
2023/04/23 08:35:20;;;;;;;1.50;0.90;;;19.10;96.90;;;;;;5074050;28;20472;-76
2023/04/23 08:37:47;;;;;;;1.50;0.97;;;19.00;97.30;;;;;;5078414;27;20479;-78
2023/04/23 08:40:14;;;;;;;1.50;0.90;;;19.20;98.20;;;;;;5080535;28;20787;-76
2023/04/23 08:42:45;;;;;;;1.50;0.90;;;19.50;97.30;;;;;;5083980;28;20480;-75
2023/04/23 08:45:13;;;;;;;1.50;0.90;;;19.70;96.50;;;;;;5081624;28;20490;-75
2023/04/23 08:47:42;;;;;;;1.50;0.90;;;19.80;95.30;;;;;;5070526;28;20484;-76
2023/04/23 08:50:12;;;;;;;1.50;0.90;;;19.90;94.40;;;;;;5082486;28;20465;-75
2023/04/23 08:52:41;;;;;;;1.50;0.90;;;20.00;94.10;;;;;;5087336;28;20858;-75
2023/04/23 08:55:13;;;;;;;1.50;0.90;;;20.10;93.90;;;;;;5082712;28;20448;-75
2023/04/23 08:57:41;;;;;;;1.60;1.00;;;19.80;91.70;;;;;;5085058;28;20514;-75
2023/04/23 09:00:10;;;;;;;1.50;0.90;;;19.60;93.60;;;;;;5077910;28;20462;-75
2023/04/23 09:02:39;;;;;;;1.50;0.90;;;19.50;94.30;;;;;;5084384;28;20472;-75
2023/04/23 09:05:07;;;;;;;1.50;0.90;;;19.30;94.40;;;;;;5079757;28;20831;-75
2023/04/23 09:07:36;;;;;;;1.50;1.23;;;19.40;95.60;;;;;;5082981;28;20499;-76
2023/04/23 09:10:05;;;;;;;1.50;0.90;;;19.20;95.40;;;;;;5083799;28;20475;-75
2023/04/23 09:12:35;;;;;;;1.50;0.90;;;19.10;95.90;;;;;;5085403;28;21092;-75
2023/04/23 09:15:08;;;;;;;1.60;1.30;;;19.10;95.70;;;;;;5081975;28;20609;-75
2023/04/23 09:17:38;;;;;;;1.50;0.90;;;19.30;96.50;;;;;;5084987;28;20475;-76
2023/04/23 09:20:07;;;;;;;1.50;0.90;;;19.40;94.80;;;;;;5082116;28;20468;-74
2023/04/23 09:22:44;;;;;;;1.50;1.10;;;19.70;95.40;;;;;;5085985;28;20483;-74
2023/04/23 09:25:13;;;;;;;1.47;0.90;;;20.00;93.50;;;;;;5079103;28;20840;-74
2023/04/23 09:27:41;;;;;;;1.50;0.90;;;19.70;92.60;;;;;;5086437;28;21014;-76
2023/04/23 09:30:10;;;;;;;1.50;0.90;;;19.80;93.90;;;;;;5082067;28;20966;-75
2023/04/23 09:32:39;;;;;;;1.50;0.90;;;19.80;93.00;;;;;;5071411;28;20567;-75
2023/04/23 09:35:08;;;;;;;1.50;1.00;;;19.70;93.90;;;;;;5078399;28;20827;-74
2023/04/23 09:37:35;;;;;;;1.50;0.90;;;19.70;94.80;;;;;;5085690;28;20947;-73
2023/04/23 09:40:07;;;;;;;1.60;1.30;;;19.80;92.50;;;;;;5079613;28;21058;-74
2023/04/23 09:42:35;;;;;;;1.50;0.90;;;19.90;90.70;;;;;;5081412;28;20886;-74
2023/04/23 09:45:06;;;;;;;1.47;0.90;;;19.70;90.70;;;;;;5083558;28;20464;-75
2023/04/23 09:47:34;;;;;;;1.50;0.90;;;19.80;91.20;;;;;;5085109;28;20475;-74
2023/04/23 09:50:02;;;;;;;1.70;1.43;;;19.80;92.40;;;;;;5082129;28;20465;-74
2023/04/23 09:52:32;;;;;;;1.50;0.90;;;20.00;92.20;;;;;;5083773;28;21065;-75
2023/04/23 09:55:05;;;;;;;1.50;0.90;;;20.00;89.50;;;;;;5082395;28;20510;-76
2023/04/23 09:57:36;;;;;;;1.47;0.83;;;20.10;89.30;;;;;;5069324;28;20646;-74
2023/04/23 10:00:15;;;;;;;1.47;0.90;;;20.10;90.00;;;;;;5077498;28;20480;-74
2023/04/23 10:02:47;;;;;;;1.60;1.10;;;20.20;89.80;;;;;;5069776;28;20480;-74
2023/04/23 10:05:16;;;;;;;1.47;0.90;;;20.20;88.80;;;;;;5079757;28;20463;-74
2023/04/23 10:07:45;;;;;;;1.47;0.90;;;20.20;88.70;;;;;;5085797;28;20888;-74
2023/04/23 10:10:14;;;;;;;1.50;0.90;;;20.30;87.90;;;;;;5080400;28;20465;-75
2023/04/23 10:12:42;;;;;;;1.50;1.00;;;20.30;88.00;;;;;;5083835;28;20491;-74
2023/04/23 10:15:10;;;;;;;1.40;0.90;;;20.40;88.10;;;;;;5080399;28;20472;-75
2023/04/23 10:17:37;;;;;;;1.47;0.90;;;20.40;86.80;;;;;;5084478;28;20544;-77
2023/04/23 10:20:07;;;;;;;1.50;0.90;;;20.30;87.90;;;;;;5083233;28;20513;-76
2023/04/23 10:22:34;;;;;;;1.50;0.90;;;20.20;88.10;;;;;;5086425;28;20479;-75
2023/04/23 10:25:07;;;;;;;1.47;0.90;;;20.30;88.40;;;;;;5087096;28;20453;-74
2023/04/23 10:27:39;;;;;;;1.47;0.90;;;20.60;89.30;;;;;;5087417;28;20487;-73
2023/04/23 10:30:08;;;;;;;1.50;0.90;;;20.90;87.20;;;;;;5082392;28;20955;-75
2023/04/23 10:32:36;;;;;;;1.50;0.90;;;21.20;84.90;;;;;;5087705;28;20930;-74
2023/04/23 10:35:05;;;;;;;1.50;0.90;;;21.30;84.30;;;;;;5084609;28;20544;-75
2023/04/23 10:37:34;;;;;;;1.50;0.90;;;21.50;83.20;;;;;;5087519;28;20490;-75
2023/04/23 10:40:10;;;;;;;1.50;0.80;;;21.40;81.70;;;;;;5085442;28;20468;-76
2023/04/23 10:42:40;;;;;;;1.50;0.90;;;21.30;82.10;;;;;;5089189;28;20487;-75
2023/04/23 10:45:14;;;;;;;1.50;0.90;;;21.20;83.30;;;;;;5087164;28;20510;-75
2023/04/23 10:47:44;;;;;;;1.50;0.90;;;21.10;81.60;;;;;;5087780;28;20872;-75
2023/04/23 10:50:23;;;;;;;1.50;0.90;;;21.00;82.30;;;;;;5084176;28;20460;-75
2023/04/23 10:52:52;;;;;;;1.50;0.90;;;20.80;81.40;;;;;;5090712;28;20629;-75
2023/04/23 10:55:23;;;;;;;1.47;0.90;;;20.80;83.60;;;;;;5082899;28;20574;-75
2023/04/23 10:57:59;;;;;;;1.43;0.90;;;20.80;82.80;;;;;;5087154;28;20471;-76
2023/04/23 11:00:27;;;;;;;1.50;0.90;;;20.70;82.30;;;;;;5083166;28;20466;-75
2023/04/23 11:02:54;;;;;;;1.47;0.90;;;20.60;83.40;;;;;;5089988;28;20487;-74
2023/04/23 11:05:22;;;;;;;1.50;0.90;;;20.40;82.90;;;;;;5082917;28;21017;-75
2023/04/23 11:08:10;;;;;;;1.50;0.90;;;20.20;83.60;;;;;;5089930;28;20475;-75
2023/04/23 11:10:55;;;;;;;1.47;0.90;;;20.10;83.80;;;;;;5075015;28;20465;-75
2023/04/23 11:13:28;;;;;;;1.43;0.87;;;20.20;85.80;;;;;;5090331;28;20925;-74
2023/04/23 11:16:14;;;;;;;1.50;0.80;;;20.50;84.10;;;;;;5071069;28;20823;-75
2023/04/23 11:19:03;;;;;;;1.47;0.90;;;21.00;84.10;;;;;;5084538;28;20511;-76
2023/04/23 11:21:58;;;;;;;1.50;0.87;;;21.00;82.10;;;;;;5078510;28;20479;-74
2023/04/23 11:24:27;;;;;;;1.50;0.90;;;20.90;81.20;;;;;;5089001;28;20464;-76
2023/04/23 11:26:54;;;;;;;1.50;0.90;;;20.60;81.90;;;;;;5082460;28;20498;-78
2023/04/23 11:29:24;;;;;;;1.50;0.90;;;20.50;81.10;;;;;;5091692;28;20460;-74
2023/04/23 11:31:52;;;;;;;1.50;0.90;;;20.40;81.40;;;;;;5070579;28;20483;-75
2023/04/23 11:34:20;;;;;;;1.47;0.90;;;20.40;81.00;;;;;;5082186;28;20552;-75
2023/04/23 11:36:49;;;;;;;1.43;0.90;;;20.30;82.40;;;;;;5077501;28;20645;-75
2023/04/23 11:39:18;;;;;;;1.50;0.90;;;20.30;83.10;;;;;;5089673;28;20670;-77
2023/04/23 11:41:45;;;;;;;1.93;1.83;;;20.40;81.80;;;;;;5070122;28;20477;-77
2023/04/23 11:44:12;;;;;;;1.50;0.90;;;20.50;81.30;;;;;;5083293;28;20832;-77
2023/04/23 11:46:41;;;;;;;1.50;0.90;;;20.60;81.00;;;;;;5074197;28;20530;-77
2023/04/23 11:49:09;;;;;;;1.50;0.90;;;20.70;80.50;;;;;;5084805;28;20533;-76
2023/04/23 11:51:42;;;;;;;1.47;0.90;;;20.80;80.10;;;;;;5079889;28;20967;-78
2023/04/23 11:54:10;;;;;;;1.50;0.90;;;20.90;80.80;;;;;;5090313;28;20484;-76
2023/04/23 11:56:38;;;;;;;1.50;0.90;;;21.10;80.10;;;;;;5073303;28;20484;-73
2023/04/23 11:59:05;;;;;;;1.50;0.90;;;21.30;76.70;;;;;;5090605;28;20931;-76
2023/04/23 12:01:47;;;;;;;1.47;0.90;;;21.40;77.30;;;;;;5066642;28;20482;-76
2023/04/23 12:04:16;;;;;;;1.40;0.90;;;21.30;75.90;;;;;;5088520;28;20476;-76
2023/04/23 12:06:45;;;;;;;1.43;0.90;;;21.20;76.80;;;;;;5076207;28;20763;-76
2023/04/23 12:09:13;;;;;;;1.50;1.00;;;21.10;76.00;;;;;;5088176;28;20484;-75
2023/04/23 12:11:41;;;;;;;1.50;0.80;;;21.00;75.90;;;;;;5070089;28;20497;-77
2023/04/23 12:14:09;;;;;;;1.47;0.90;;;21.20;75.70;;;;;;5077380;28;21017;-73
2023/04/23 12:16:38;;;;;;;1.50;0.90;;;21.30;73.90;;;;;;5074794;28;20496;-75
2023/04/23 12:19:09;;;;;;;1.50;0.90;;;21.50;73.60;;;;;;5092063;28;21023;-75
2023/04/23 12:21:48;;;;;;;1.50;0.90;;;22.00;74.00;;;;;;5078948;28;20534;-75
2023/04/23 12:24:16;;;;;;;1.50;0.90;;;22.10;73.80;;;;;;5091544;28;20840;-77
2023/04/23 12:26:43;;;;;;;1.50;0.90;;;22.40;74.70;;;;;;5080361;28;20567;-75
2023/04/23 12:29:13;;;;;;;1.50;1.10;;;22.70;74.80;;;;;;5085307;28;20569;-76
2023/04/23 12:31:40;;;;;;;1.50;0.90;;;23.00;73.00;;;;;;5074137;28;20480;-75
2023/04/23 12:34:10;;;;;;;1.50;0.80;;;23.30;71.50;;;;;;5089641;28;20980;-75
2023/04/23 12:36:39;;;;;;;1.43;0.80;;;23.40;70.90;;;;;;5067839;28;21415;-76
2023/04/23 12:39:24;;;;;;;1.43;0.87;;;23.40;70.60;;;;;;5086799;28;20549;-77
2023/04/23 12:41:52;;;;;;;1.50;0.90;;;23.60;70.50;;;;;;5079742;28;20475;-74
2023/04/23 12:44:20;;;;;;;1.47;0.80;;;23.60;69.80;;;;;;5087809;28;20448;-74
2023/04/23 12:46:54;;;;;;;1.47;0.90;;;23.60;71.10;;;;;;5073004;28;20497;-75
2023/04/23 12:49:23;;;;;;;1.47;0.80;;;23.60;70.20;;;;;;5071874;28;20488;-77
2023/04/23 12:51:51;;;;;;;1.40;0.80;;;23.60;70.20;;;;;;5070415;28;20513;-77
2023/04/23 12:54:18;;;;;;;1.47;0.90;;;23.50;70.00;;;;;;5080610;28;20465;-76
2023/04/23 12:56:45;;;;;;;1.40;0.80;;;23.50;70.60;;;;;;5071584;28;20529;-76